createdAt,value
2018-06-24T00:02:07.322Z,7.20
2018-06-24T00:04:36.183Z,6.83
2018-06-24T00:07:04.306Z,3.80
2018-06-24T00:09:32.912Z,7.23
2018-06-24T00:12:00.776Z,6.73
2018-06-24T00:14:28.890Z,10.73
2018-06-24T00:16:57.957Z,9.87
2018-06-24T00:19:26.404Z,5.77
2018-06-24T00:21:55.351Z,3.43
2018-06-24T00:24:24.905Z,4.20
2018-06-24T00:26:53.773Z,7.53
2018-06-24T00:30:47.070Z,6.30
2018-06-24T00:34:18.438Z,4.27
2018-06-24T00:36:46.523Z,4.17
2018-06-24T00:39:15.059Z,9.73
2018-06-24T00:41:44.027Z,6.33
2018-06-24T00:44:13.117Z,5.87
2018-06-24T00:46:41.193Z,8.23
2018-06-24T00:49:09.425Z,4.83
2018-06-24T00:51:38.942Z,7.17
2018-06-24T00:54:07.148Z,4.10
2018-06-24T00:56:35.205Z,7.97
2018-06-24T00:59:03.803Z,4.50
2018-06-24T01:01:32.346Z,7.47
2018-06-24T01:04:00.928Z,5.70
2018-06-24T01:06:28.989Z,5.10
2018-06-24T01:08:59.601Z,5.60
2018-06-24T01:11:28.195Z,5.27
2018-06-24T01:13:56.381Z,8.10
2018-06-24T01:16:24.670Z,10.13
2018-06-24T01:18:52.892Z,7.10
2018-06-24T01:21:20.957Z,6.23
2018-06-24T01:23:49.226Z,5.70
2018-06-24T01:26:17.446Z,5.30
2018-06-24T01:28:46.127Z,5.57
2018-06-24T01:31:14.853Z,6.40
2018-06-24T01:33:42.692Z,4.17
2018-06-24T01:36:10.665Z,6.43
2018-06-24T01:38:38.930Z,9.53
2018-06-24T01:41:07.076Z,7.00
2018-06-24T01:43:35.460Z,4.97
2018-06-24T01:46:03.748Z,7.53
2018-06-24T01:48:31.797Z,7.97
2018-06-24T01:51:00.471Z,5.40
2018-06-24T01:53:28.529Z,4.93
2018-06-24T01:55:57.400Z,5.47
2018-06-24T01:58:26.206Z,4.53
2018-06-24T02:00:54.701Z,7.00
2018-06-24T02:03:22.893Z,4.13
2018-06-24T02:05:51.821Z,5.93
2018-06-24T02:08:19.934Z,9.33
2018-06-24T02:10:48.198Z,7.20
2018-06-24T02:13:17.148Z,7.08
2018-06-24T02:15:46.138Z,7.43
2018-06-24T02:18:15.276Z,6.07
2018-06-24T02:20:43.195Z,5.60
2018-06-24T02:23:13.133Z,6.73
2018-06-24T02:25:41.233Z,4.53
2018-06-24T02:28:09.360Z,7.53
2018-06-24T02:30:38.020Z,4.00
2018-06-24T02:33:06.293Z,8.43
2018-06-24T02:35:35.442Z,3.87
2018-06-24T02:38:03.581Z,6.00
2018-06-24T02:40:31.838Z,5.90
2018-06-24T02:42:59.962Z,6.57
2018-06-24T02:45:28.418Z,9.43
2018-06-24T02:47:56.605Z,4.57
2018-06-24T02:51:27.945Z,5.77
2018-06-24T02:53:56.171Z,3.10
2018-06-24T02:56:24.317Z,9.67
2018-06-24T02:58:52.513Z,3.60
2018-06-24T03:01:21.229Z,4.77
2018-06-24T03:03:49.936Z,5.47
2018-06-24T03:06:18.987Z,6.63
2018-06-24T03:08:47.032Z,7.70
2018-06-24T03:11:16.018Z,4.73
2018-06-24T03:13:44.082Z,6.37
2018-06-24T03:16:12.254Z,4.97
2018-06-24T03:18:41.690Z,5.43
2018-06-24T03:21:09.811Z,9.20
2018-06-24T03:23:38.034Z,3.70
2018-06-24T03:26:06.685Z,6.30
2018-06-24T03:28:36.316Z,5.50
2018-06-24T03:31:04.490Z,5.57
2018-06-24T03:33:33.464Z,7.53
2018-06-24T03:36:02.694Z,6.20
2018-06-24T03:38:30.796Z,5.80
2018-06-24T03:40:59.357Z,4.67
2018-06-24T03:43:27.649Z,3.87
2018-06-24T03:45:55.749Z,5.80
2018-06-24T03:48:24.414Z,4.27
2018-06-24T03:50:52.698Z,5.17
2018-06-24T03:53:21.106Z,6.43
2018-06-24T03:55:49.387Z,9.37
2018-06-24T03:58:18.301Z,5.43
2018-06-24T04:00:46.450Z,7.40
2018-06-24T04:03:15.282Z,6.73
2018-06-24T04:05:43.355Z,9.00
2018-06-24T04:08:11.879Z,5.53
2018-06-24T04:10:40.589Z,4.50
2018-06-24T04:13:08.750Z,6.60
2018-06-24T04:15:36.989Z,4.63
2018-06-24T04:18:05.127Z,7.90
2018-06-24T04:20:33.766Z,7.77
2018-06-24T04:23:01.959Z,9.83
2018-06-24T04:25:30.034Z,2.97
2018-06-24T04:27:58.258Z,3.83
2018-06-24T04:30:27.456Z,6.30
2018-06-24T04:32:55.959Z,5.07
2018-06-24T04:35:24.467Z,5.47
2018-06-24T04:37:52.685Z,3.23
2018-06-24T04:40:20.741Z,7.17
2018-06-24T04:42:49.603Z,7.57
2018-06-24T04:45:17.834Z,6.90
2018-06-24T04:47:46.445Z,5.60
2018-06-24T04:50:14.505Z,7.70
2018-06-24T04:52:43.173Z,8.87
2018-06-24T04:55:12.312Z,5.87
2018-06-24T04:57:40.406Z,6.37
2018-06-24T05:00:08.462Z,5.27
2018-06-24T05:02:37.228Z,5.17
2018-06-24T05:05:06.753Z,7.23
2018-06-24T05:07:35.361Z,6.33
2018-06-24T05:10:03.772Z,3.07
2018-06-24T05:12:31.893Z,6.70
2018-06-24T05:15:00.300Z,3.00
2018-06-24T05:17:28.446Z,6.93
2018-06-24T05:19:57.313Z,5.07
2018-06-24T05:22:25.370Z,3.10
2018-06-24T05:24:53.905Z,3.90
2018-06-24T05:27:22.790Z,3.37
2018-06-24T05:29:51.602Z,4.63
2018-06-24T05:32:20.885Z,4.20
2018-06-24T05:34:49.969Z,4.73
2018-06-24T05:37:18.177Z,6.03
2018-06-24T05:39:46.911Z,6.33
2018-06-24T05:42:15.726Z,4.63
2018-06-24T05:44:44.002Z,3.63
2018-06-24T05:47:16.471Z,4.17
2018-06-24T05:49:46.525Z,4.43
2018-06-24T05:52:14.678Z,5.10
2018-06-24T05:54:44.333Z,4.80
2018-06-24T05:57:12.513Z,4.03
2018-06-24T05:59:40.425Z,4.17
2018-06-24T06:02:09.546Z,4.97
2018-06-24T06:04:37.670Z,6.03
2018-06-24T06:07:05.733Z,2.40
2018-06-24T06:09:34.548Z,5.13
2018-06-24T06:12:03.346Z,3.23
2018-06-24T06:14:32.634Z,3.83
2018-06-24T06:17:00.845Z,2.37
2018-06-24T06:19:28.969Z,3.30
2018-06-24T06:21:57.070Z,4.20
2018-06-24T06:24:26.129Z,2.37
2018-06-24T06:26:54.866Z,3.07
2018-06-24T06:29:23.238Z,3.20
2018-06-24T06:31:51.415Z,2.80
2018-06-24T06:34:20.209Z,4.50
2018-06-24T06:36:50.595Z,3.93
2018-06-24T06:39:18.878Z,4.60
2018-06-24T06:41:46.953Z,2.53
2018-06-24T06:44:15.145Z,2.43
2018-06-24T06:46:43.294Z,5.33
2018-06-24T06:49:12.326Z,3.57
2018-06-24T06:51:40.970Z,2.93
2018-06-24T06:54:09.030Z,3.50
2018-06-24T06:56:37.458Z,3.10
2018-06-24T06:59:05.554Z,4.87
2018-06-24T07:01:34.346Z,4.23
2018-06-24T07:04:02.476Z,2.40
2018-06-24T07:06:31.391Z,2.63
2018-06-24T07:08:59.462Z,3.63
2018-06-24T07:11:27.558Z,2.50
2018-06-24T07:13:56.659Z,4.40
2018-06-24T07:16:24.757Z,1.83
2018-06-24T07:18:52.900Z,1.60
2018-06-24T07:21:21.165Z,2.07
2018-06-24T07:23:49.301Z,1.70
2018-06-24T07:26:17.641Z,2.70
2018-06-24T07:28:45.894Z,1.40
2018-06-24T07:31:14.228Z,1.33
2018-06-24T07:33:43.349Z,2.40
2018-06-24T07:36:12.190Z,2.37
2018-06-24T07:38:40.891Z,2.40
2018-06-24T07:41:08.817Z,1.40
2018-06-24T07:43:36.889Z,2.10
2018-06-24T07:46:05.007Z,2.67
2018-06-24T07:48:33.870Z,1.33
2018-06-24T07:51:01.794Z,1.00
2018-06-24T07:53:29.945Z,1.00
2018-06-24T07:55:58.774Z,0.83
2018-06-24T07:58:26.942Z,1.77
2018-06-24T08:00:55.110Z,0.70
2018-06-24T08:03:23.470Z,1.00
2018-06-24T08:05:52.210Z,1.77
2018-06-24T08:08:20.845Z,1.10
2018-06-24T08:10:49.318Z,1.20
2018-06-24T08:13:17.807Z,3.23
2018-06-24T08:15:46.019Z,4.30
2018-06-24T08:18:14.346Z,1.60
2018-06-24T08:20:42.545Z,2.10
2018-06-24T08:23:11.330Z,3.53
2018-06-24T08:25:39.569Z,2.40
2018-06-24T08:28:07.530Z,2.17
2018-06-24T08:30:35.466Z,2.70
2018-06-24T08:33:04.379Z,1.50
2018-06-24T08:35:33.031Z,2.20
2018-06-24T08:38:01.424Z,2.73
2018-06-24T08:40:29.514Z,1.93
2018-06-24T08:42:57.587Z,0.80
2018-06-24T08:45:26.735Z,0.93
2018-06-24T08:47:55.933Z,1.05
2018-06-24T08:50:24.205Z,0.85
2018-06-24T08:52:52.845Z,1.35
2018-06-24T08:55:21.484Z,1.45
2018-06-24T08:57:49.701Z,1.30
2018-06-24T09:00:18.134Z,0.90
2018-06-24T09:02:46.518Z,0.80
2018-06-24T09:05:15.002Z,1.12
2018-06-24T09:07:43.839Z,1.47
2018-06-24T09:10:11.950Z,1.40
2018-06-24T09:12:40.413Z,1.70
2018-06-24T09:15:08.790Z,2.10
2018-06-24T09:17:36.831Z,2.50
2018-06-24T09:20:05.402Z,2.50
2018-06-24T09:22:33.764Z,2.80
2018-06-24T09:25:02.806Z,3.13
2018-06-24T09:27:30.657Z,2.33
2018-06-24T09:29:58.770Z,1.87
2018-06-24T09:32:27.169Z,1.00
2018-06-24T09:35:59.415Z,1.60
2018-06-24T09:38:28.134Z,1.53
2018-06-24T09:40:56.207Z,1.73
2018-06-24T09:43:24.913Z,0.70
2018-06-24T09:45:53.430Z,0.80
2018-06-24T09:48:22.018Z,1.15
2018-06-24T09:50:50.544Z,0.70
2018-06-24T09:53:18.610Z,0.57
2018-06-24T09:55:47.881Z,0.70
2018-06-24T09:58:16.035Z,0.78
2018-06-24T10:00:44.694Z,0.80
2018-06-24T10:03:12.748Z,1.65
2018-06-24T10:05:41.194Z,1.00
2018-06-24T10:08:09.953Z,0.90
2018-06-24T10:10:38.071Z,0.90
2018-06-24T10:13:06.446Z,0.80
2018-06-24T10:15:35.467Z,0.75
2018-06-24T10:18:05.153Z,0.95
2018-06-24T10:20:34.059Z,0.78
2018-06-24T10:23:02.470Z,0.90
2018-06-24T10:25:31.261Z,2.30
2018-06-24T10:27:59.354Z,0.98
2018-06-24T10:30:28.106Z,1.12
2018-06-24T10:32:56.289Z,1.52
2018-06-24T10:35:25.390Z,0.95
2018-06-24T10:37:53.494Z,0.98
2018-06-24T10:40:21.542Z,1.00
2018-06-24T10:42:50.266Z,1.32
2018-06-24T10:45:18.385Z,0.98
2018-06-24T10:47:46.605Z,1.02
2018-06-24T10:50:15.165Z,1.02
2018-06-24T10:52:43.978Z,0.80
2018-06-24T10:55:12.549Z,1.00
2018-06-24T10:57:40.505Z,0.70
2018-06-24T11:00:09.237Z,0.60
2018-06-24T11:02:37.441Z,0.70
2018-06-24T11:05:05.898Z,0.70
2018-06-24T11:07:34.637Z,0.50
2018-06-24T11:10:03.163Z,1.13
2018-06-24T11:12:31.120Z,0.78
2018-06-24T11:14:59.495Z,0.80
2018-06-24T11:17:27.541Z,1.22
2018-06-24T11:19:55.885Z,0.75
2018-06-24T11:22:23.969Z,1.67
2018-06-24T11:24:53.377Z,1.50
2018-06-24T11:27:21.629Z,1.52
2018-06-24T11:29:49.801Z,1.57
2018-06-24T11:32:17.961Z,1.70
2018-06-24T11:34:46.853Z,1.30
2018-06-24T11:37:15.126Z,1.00
2018-06-24T11:39:43.136Z,1.17
2018-06-24T11:42:11.274Z,1.42
2018-06-24T11:44:39.529Z,0.82
2018-06-24T11:47:08.497Z,1.00
2018-06-24T11:49:37.151Z,1.15
2018-06-24T11:52:05.233Z,1.20
2018-06-24T11:54:33.832Z,1.22
2018-06-24T11:57:02.083Z,2.58
2018-06-24T11:59:29.953Z,1.40
2018-06-24T12:01:59.059Z,1.40
2018-06-24T12:04:27.666Z,0.95
2018-06-24T12:06:55.817Z,1.10
2018-06-24T12:09:23.857Z,1.52
2018-06-24T12:11:51.722Z,1.20
2018-06-24T12:14:20.272Z,2.70
2018-06-24T12:16:48.563Z,1.55
2018-06-24T12:19:17.122Z,1.80
2018-06-24T12:21:45.809Z,1.85
2018-06-24T12:24:13.937Z,2.15
2018-06-24T12:26:42.195Z,1.82
2018-06-24T12:29:10.796Z,1.72
2018-06-24T12:31:38.919Z,1.87
2018-06-24T12:34:07.764Z,1.40
2018-06-24T12:36:39.046Z,1.55
2018-06-24T12:39:09.124Z,1.60
2018-06-24T12:41:38.494Z,1.62
2018-06-24T12:44:09.275Z,2.35
2018-06-24T12:46:37.362Z,1.90
2018-06-24T12:49:07.588Z,2.20
2018-06-24T12:51:38.532Z,2.17
2018-06-24T12:54:07.693Z,2.08
2018-06-24T12:56:40.334Z,3.15
2018-06-24T12:59:08.847Z,1.90
2018-06-24T13:01:37.571Z,1.87
2018-06-24T13:04:06.026Z,1.70
2018-06-24T13:06:34.349Z,2.22
2018-06-24T13:09:02.450Z,1.57
2018-06-24T13:11:31.053Z,2.35
2018-06-24T13:13:59.473Z,2.05
2018-06-24T13:16:28.354Z,2.10
2018-06-24T13:18:56.433Z,1.80
2018-06-24T13:21:27.821Z,1.80
2018-06-24T13:23:55.965Z,2.27
2018-06-24T13:26:24.126Z,1.25
2018-06-24T13:28:52.195Z,1.40
2018-06-24T13:31:20.438Z,1.00
2018-06-24T13:33:49.060Z,1.40
2018-06-24T13:36:17.393Z,1.50
2018-06-24T13:38:45.989Z,2.12
2018-06-24T13:41:16.139Z,1.62
2018-06-24T13:43:44.385Z,1.20
2018-06-24T13:46:13.065Z,1.60
2018-06-24T13:48:41.697Z,1.37
2018-06-24T13:51:10.171Z,1.15
2018-06-24T13:53:38.278Z,1.10
2018-06-24T13:56:07.281Z,1.30
2018-06-24T13:58:35.513Z,1.50
2018-06-24T14:01:03.550Z,2.62
2018-06-24T14:03:32.313Z,1.62
2018-06-24T14:06:00.836Z,2.55
2018-06-24T14:08:29.743Z,1.95
2018-06-24T14:10:58.237Z,2.08
2018-06-24T14:13:27.515Z,1.60
2018-06-24T14:15:55.937Z,2.05
2018-06-24T14:18:24.089Z,1.60
2018-06-24T14:20:52.513Z,2.62
2018-06-24T14:23:20.752Z,1.92
2018-06-24T14:25:48.762Z,1.32
2018-06-24T14:28:17.233Z,1.17
2018-06-24T14:30:45.511Z,1.47
2018-06-24T14:33:14.104Z,1.32
2018-06-24T14:35:42.229Z,1.17
2018-06-24T14:38:10.287Z,3.40
2018-06-24T14:40:38.469Z,2.35
2018-06-24T14:43:06.758Z,1.85
2018-06-24T14:45:35.645Z,2.50
2018-06-24T14:48:04.253Z,1.32
2018-06-24T14:50:32.737Z,2.02
2018-06-24T14:53:01.685Z,1.10
2018-06-24T14:55:29.924Z,1.42
2018-06-24T14:57:58.610Z,1.60
2018-06-24T15:00:26.746Z,1.32
2018-06-24T15:02:55.572Z,2.87
2018-06-24T15:05:23.706Z,1.10
2018-06-24T15:07:51.759Z,2.98
2018-06-24T15:10:21.582Z,1.37
2018-06-24T15:12:49.799Z,1.72
2018-06-24T15:15:18.354Z,1.27
2018-06-24T15:17:46.723Z,1.70
2018-06-24T15:20:14.981Z,2.22
2018-06-24T15:22:43.202Z,4.58
2018-06-24T15:25:13.221Z,2.80
2018-06-24T15:27:41.586Z,1.85
2018-06-24T15:30:10.270Z,1.65
2018-06-24T15:32:39.118Z,2.62
2018-06-24T15:35:07.025Z,2.13
2018-06-24T15:37:35.131Z,2.05
2018-06-24T15:40:04.061Z,2.58
2018-06-24T15:42:32.261Z,2.40
2018-06-24T15:45:00.446Z,2.00
2018-06-24T15:47:28.637Z,3.72
2018-06-24T15:49:57.371Z,1.52
2018-06-24T15:52:25.697Z,1.42
2018-06-24T15:54:53.858Z,1.47
2018-06-24T15:57:22.785Z,2.62
2018-06-24T15:59:51.505Z,1.65
2018-06-24T16:02:20.217Z,2.12
2018-06-24T16:04:48.653Z,2.10
2018-06-24T16:07:16.681Z,2.42
2018-06-24T16:09:44.818Z,1.60
2018-06-24T16:12:12.886Z,1.90
2018-06-24T16:14:40.819Z,2.20
2018-06-24T16:17:09.284Z,2.42
2018-06-24T16:19:37.495Z,3.27
2018-06-24T16:22:06.979Z,2.20
2018-06-24T16:24:36.577Z,3.45
2018-06-24T16:27:04.709Z,1.60
2018-06-24T16:29:33.625Z,1.85
2018-06-24T16:32:02.655Z,2.77
2018-06-24T16:34:30.699Z,1.80
2018-06-24T16:36:58.769Z,3.22
2018-06-24T16:39:26.845Z,1.62
2018-06-24T16:41:55.030Z,1.80
2018-06-24T16:44:23.393Z,1.30
2018-06-24T16:46:51.567Z,3.55
2018-06-24T16:49:20.465Z,2.33
2018-06-24T16:51:48.673Z,2.87
2018-06-24T16:54:16.893Z,2.87
2018-06-24T16:56:46.023Z,1.57
2018-06-24T16:59:14.146Z,2.17
2018-06-24T17:01:42.558Z,4.00
2018-06-24T17:04:10.805Z,1.35
2018-06-24T17:06:38.984Z,1.80
2018-06-24T17:09:08.481Z,1.42
2018-06-24T17:11:37.089Z,1.47
2018-06-24T17:14:05.491Z,2.03
2018-06-24T17:16:34.041Z,1.60
2018-06-24T17:19:02.229Z,2.72
2018-06-24T17:21:30.522Z,1.70
2018-06-24T17:23:58.870Z,1.90
2018-06-24T17:26:27.855Z,1.40
2018-06-24T17:28:55.958Z,1.55
2018-06-24T17:31:24.246Z,3.27
2018-06-24T17:33:55.031Z,2.37
2018-06-24T17:36:23.158Z,3.05
2018-06-24T17:38:51.253Z,2.83
2018-06-24T17:41:19.848Z,1.72
2018-06-24T17:43:47.943Z,2.02
2018-06-24T17:46:16.895Z,2.20
2018-06-24T17:48:45.019Z,2.83
2018-06-24T17:51:13.545Z,3.83
2018-06-24T17:53:41.665Z,3.35
2018-06-24T17:56:09.738Z,3.22
2018-06-24T17:58:37.850Z,2.10
2018-06-24T18:01:06.446Z,3.33
2018-06-24T18:03:34.866Z,2.12
2018-06-24T18:06:03.109Z,2.37
2018-06-24T18:08:31.275Z,1.70
2018-06-24T18:10:59.765Z,1.93
2018-06-24T18:13:27.924Z,4.10
2018-06-24T18:15:57.032Z,1.60
2018-06-24T18:18:26.218Z,3.07
2018-06-24T18:20:54.357Z,1.77
2018-06-24T18:23:22.985Z,2.98
2018-06-24T18:25:51.074Z,2.70
2018-06-24T18:28:19.209Z,3.33
2018-06-24T18:30:47.951Z,3.63
2018-06-24T18:33:16.920Z,1.87
2018-06-24T18:35:45.098Z,2.87
2018-06-24T18:38:13.598Z,3.27
2018-06-24T18:40:41.730Z,1.97
2018-06-24T18:43:09.823Z,2.27
2018-06-24T18:45:38.050Z,2.40
2018-06-24T18:48:06.890Z,4.47
2018-06-24T18:50:35.034Z,4.63
2018-06-24T18:53:04.046Z,2.43
2018-06-24T18:55:32.254Z,3.03
2018-06-24T18:58:00.473Z,3.70
2018-06-24T19:00:28.984Z,3.73
2018-06-24T19:02:57.300Z,3.53
2018-06-24T19:05:25.250Z,3.53
2018-06-24T19:07:54.363Z,2.87
2018-06-24T19:10:23.522Z,2.23
2018-06-24T19:12:51.699Z,2.77
2018-06-24T19:15:20.846Z,5.23
2018-06-24T19:17:49.117Z,3.30
2018-06-24T19:20:17.698Z,2.10
2018-06-24T19:22:46.349Z,2.90
2018-06-24T19:25:15.870Z,3.17
2018-06-24T19:27:44.135Z,2.53
2018-06-24T19:30:12.998Z,2.67
2018-06-24T19:32:41.895Z,2.97
2018-06-24T19:35:10.301Z,3.63
2018-06-24T19:37:39.105Z,3.00
2018-06-24T19:40:07.515Z,3.97
2018-06-24T19:42:36.087Z,2.70
2018-06-24T19:45:04.925Z,5.03
2018-06-24T19:47:33.650Z,3.10
2018-06-24T19:50:01.595Z,3.30
2018-06-24T19:52:29.670Z,4.43
2018-06-24T19:54:58.316Z,2.77
2018-06-24T19:57:26.504Z,1.90
2018-06-24T19:59:55.510Z,2.40
2018-06-24T20:02:24.566Z,2.00
2018-06-24T20:04:53.387Z,2.47
2018-06-24T20:07:22.773Z,2.73
2018-06-24T20:09:50.898Z,3.87
2018-06-24T20:12:19.026Z,4.30
2018-06-24T20:14:47.688Z,3.10
2018-06-24T20:17:16.187Z,5.20
2018-06-24T20:19:44.718Z,3.43
2018-06-24T20:22:12.865Z,2.67
2018-06-24T20:24:41.035Z,4.40
2018-06-24T20:27:10.474Z,4.80
2018-06-24T20:29:39.829Z,2.57
2018-06-24T20:32:08.218Z,2.40
2018-06-24T20:34:37.209Z,4.53
2018-06-24T20:37:05.662Z,2.30
2018-06-24T20:39:33.899Z,2.83
2018-06-24T20:42:02.070Z,4.00
2018-06-24T20:44:30.205Z,3.90
2018-06-24T20:46:58.402Z,2.90
2018-06-24T20:49:26.801Z,2.90
2018-06-24T20:51:54.934Z,3.03
2018-06-24T20:54:23.338Z,3.13
2018-06-24T20:56:51.909Z,4.93
2018-06-24T20:59:20.066Z,3.70
2018-06-24T21:01:48.251Z,3.30
2018-06-24T21:04:16.519Z,3.33
2018-06-24T21:06:45.562Z,3.53
2018-06-24T21:09:13.975Z,2.73
2018-06-24T21:11:43.014Z,5.60
2018-06-24T21:14:11.513Z,3.30
2018-06-24T21:16:40.298Z,6.07
2018-06-24T21:19:08.447Z,5.37
2018-06-24T21:21:36.676Z,3.50
2018-06-24T21:24:04.836Z,4.63
2018-06-24T21:26:32.928Z,7.63
2018-06-24T21:29:01.438Z,4.57
2018-06-24T21:31:29.849Z,4.13
2018-06-24T21:33:58.906Z,5.20
2018-06-24T21:36:27.981Z,4.20
2018-06-24T21:38:57.406Z,5.07
2018-06-24T21:41:26.577Z,5.70
2018-06-24T21:43:54.481Z,6.67
2018-06-24T21:46:22.890Z,5.07
2018-06-24T21:48:51.771Z,3.57
2018-06-24T21:51:19.920Z,3.60
2018-06-24T21:53:48.105Z,3.23
2018-06-24T21:56:16.438Z,4.20
2018-06-24T21:58:44.360Z,6.23
2018-06-24T22:01:12.893Z,5.77
2018-06-24T22:03:41.305Z,4.00
2018-06-24T22:06:09.662Z,4.60
2018-06-24T22:08:37.870Z,4.37
2018-06-24T22:11:06.630Z,3.53
2018-06-24T22:13:35.166Z,7.87
2018-06-24T22:16:03.266Z,5.23
2018-06-24T22:18:31.341Z,3.93
2018-06-24T22:20:59.585Z,3.30
2018-06-24T22:23:28.059Z,6.33
2018-06-24T22:25:56.247Z,2.77
2018-06-24T22:28:24.637Z,3.20
2018-06-24T22:30:53.447Z,3.23
2018-06-24T22:33:21.349Z,3.53
2018-06-24T22:35:49.941Z,3.27
2018-06-24T22:38:18.806Z,3.33
2018-06-24T22:40:46.867Z,3.40
2018-06-24T22:43:16.058Z,3.50
2018-06-24T22:45:44.571Z,4.53
2018-06-24T22:48:12.803Z,3.80
2018-06-24T22:50:41.241Z,5.93
2018-06-24T22:53:09.759Z,8.67
2018-06-24T22:55:37.899Z,4.20
2018-06-24T22:58:06.511Z,6.33
2018-06-24T23:00:35.487Z,3.87
2018-06-24T23:03:04.771Z,4.33
2018-06-24T23:05:33.407Z,5.97
2018-06-24T23:08:01.455Z,4.30
2018-06-24T23:10:29.779Z,4.97
2018-06-24T23:12:58.209Z,3.03
2018-06-24T23:15:27.622Z,3.67
2018-06-24T23:17:55.765Z,3.23
2018-06-24T23:20:24.571Z,4.77
2018-06-24T23:22:52.699Z,4.93
2018-06-24T23:25:21.611Z,3.03
2018-06-24T23:27:49.767Z,8.13
2018-06-24T23:30:17.838Z,4.37
2018-06-24T23:32:47.254Z,3.13
2018-06-24T23:35:15.459Z,4.23
2018-06-24T23:37:43.611Z,3.00
2018-06-24T23:40:12.622Z,2.83
2018-06-24T23:42:41.385Z,4.05
2018-06-24T23:45:09.622Z,2.67
2018-06-24T23:47:37.549Z,4.27
2018-06-24T23:50:05.693Z,3.40
2018-06-24T23:52:33.938Z,5.53
2018-06-24T23:55:02.450Z,4.90
2018-06-24T23:58:59.770Z,3.67
